createdAt,value
2022-10-16T00:01:18.573Z,100710.48
2022-10-16T00:03:46.757Z,100713.50
2022-10-16T00:06:15.097Z,100708.73
2022-10-16T00:08:42.793Z,100701.14
2022-10-16T00:11:24.491Z,100693.64
2022-10-16T00:13:55.589Z,100689.88
2022-10-16T00:16:23.246Z,100691.73
2022-10-16T00:18:50.908Z,100689.08
2022-10-16T00:21:20.459Z,100691.45
2022-10-16T00:23:48.125Z,100691.16
2022-10-16T00:26:16.945Z,100695.16
2022-10-16T00:28:48.947Z,100695.45
2022-10-16T00:31:17.889Z,100699.01
2022-10-16T00:33:46.086Z,100697.88
2022-10-16T00:36:15.101Z,100699.38
2022-10-16T00:38:42.975Z,100705.45
2022-10-16T00:41:12.511Z,100708.64
2022-10-16T00:43:47.695Z,100707.30
2022-10-16T00:46:38.658Z,100703.25
2022-10-16T00:49:08.878Z,100706.30
2022-10-16T00:51:41.009Z,100701.80
2022-10-16T00:54:14.475Z,100703.09
2022-10-16T00:56:43.135Z,100700.75
2022-10-16T00:59:27.478Z,100700.90
2022-10-16T01:01:55.642Z,100701.36
2022-10-16T01:04:24.335Z,100701.17
2022-10-16T01:07:01.327Z,100696.82
2022-10-16T01:09:28.958Z,100699.80
2022-10-16T01:12:02.721Z,100701.14
2022-10-16T01:14:41.437Z,100707.92
2022-10-16T01:17:13.336Z,100710.71
2022-10-16T01:19:59.839Z,100717.36
2022-10-16T01:22:31.742Z,100715.23
2022-10-16T01:25:02.347Z,100708.85
2022-10-16T01:27:31.981Z,100711.14
2022-10-16T01:30:15.026Z,100711.55
2022-10-16T01:33:02.121Z,100708.27
2022-10-16T01:35:33.271Z,100704.20
2022-10-16T01:38:20.038Z,100705.36
2022-10-16T01:40:51.510Z,100713.55
2022-10-16T01:43:21.347Z,100711.91
2022-10-16T01:45:49.480Z,100713.14
2022-10-16T01:48:18.979Z,100719.00
2022-10-16T01:50:51.907Z,100718.15
2022-10-16T01:53:20.073Z,100718.60
2022-10-16T01:55:49.068Z,100718.73
2022-10-16T01:58:16.942Z,100722.42
2022-10-16T02:00:46.220Z,100725.05
2022-10-16T02:03:16.970Z,100724.80
2022-10-16T02:05:51.602Z,100725.76
2022-10-16T02:08:19.526Z,100720.48
2022-10-16T02:10:47.292Z,100720.84
2022-10-16T02:13:24.965Z,100718.61
2022-10-16T02:15:52.658Z,100728.07
2022-10-16T02:18:22.508Z,100730.06
2022-10-16T02:20:54.060Z,100728.20
2022-10-16T02:23:29.303Z,100728.06
2022-10-16T02:25:59.259Z,100725.48
2022-10-16T02:28:35.655Z,100726.84
2022-10-16T02:31:05.917Z,100727.58
2022-10-16T02:33:34.790Z,100724.66
2022-10-16T02:36:02.635Z,100724.90
2022-10-16T02:38:31.458Z,100723.92
2022-10-16T02:40:59.427Z,100724.73
2022-10-16T02:43:27.534Z,100727.84
2022-10-16T02:45:55.343Z,100727.61
2022-10-16T02:48:23.016Z,100727.27
2022-10-16T02:50:50.643Z,100725.67
2022-10-16T02:53:18.274Z,100728.94
2022-10-16T02:55:45.928Z,100727.25
2022-10-16T02:58:13.610Z,100732.19
2022-10-16T03:00:41.326Z,100736.52
2022-10-16T03:03:08.953Z,100740.89
2022-10-16T03:05:36.813Z,100740.45
2022-10-16T03:08:04.494Z,100738.70
2022-10-16T03:10:32.222Z,100738.10
2022-10-16T03:13:00.194Z,100733.80
2022-10-16T03:15:29.282Z,100735.98
2022-10-16T03:17:59.920Z,100735.88
2022-10-16T03:20:27.638Z,100736.08
2022-10-16T03:22:55.443Z,100731.00
2022-10-16T03:25:23.842Z,100729.11
2022-10-16T03:27:51.609Z,100734.67
2022-10-16T03:30:19.979Z,100734.42
2022-10-16T03:32:47.815Z,100736.48
2022-10-16T03:35:15.528Z,100736.66
2022-10-16T03:37:43.187Z,100739.52
2022-10-16T03:40:11.123Z,100741.66
2022-10-16T03:42:38.794Z,100737.48
2022-10-16T03:45:06.787Z,100739.91
2022-10-16T03:47:34.558Z,100745.42
2022-10-16T03:50:02.264Z,100742.59
2022-10-16T03:52:30.381Z,100747.84
2022-10-16T03:54:58.736Z,100752.98
2022-10-16T03:57:26.528Z,100760.77
2022-10-16T03:59:54.342Z,100766.04
2022-10-16T04:02:22.047Z,100766.41
2022-10-16T04:04:50.030Z,100764.89
2022-10-16T04:07:17.637Z,100762.78
2022-10-16T04:09:45.310Z,100764.67
2022-10-16T04:12:13.021Z,100764.21
2022-10-16T04:14:40.884Z,100769.83
2022-10-16T04:17:08.578Z,100774.52
2022-10-16T04:19:36.408Z,100774.14
2022-10-16T04:22:04.094Z,100771.38
2022-10-16T04:24:31.904Z,100774.80
2022-10-16T04:26:59.558Z,100784.40
2022-10-16T04:29:27.179Z,100787.66
2022-10-16T04:31:54.846Z,100793.32
2022-10-16T04:34:22.469Z,100793.94
2022-10-16T04:36:53.048Z,100796.31
2022-10-16T04:39:20.676Z,100797.80
2022-10-16T04:41:48.354Z,100802.61
2022-10-16T04:44:15.983Z,100804.71
2022-10-16T04:46:43.731Z,100806.20
2022-10-16T04:49:11.352Z,100803.19
2022-10-16T04:51:38.999Z,100804.48
2022-10-16T04:54:06.682Z,100798.69
2022-10-16T04:56:41.144Z,100800.41
2022-10-16T04:59:08.916Z,100803.37
2022-10-16T05:01:36.560Z,100803.84
2022-10-16T05:04:04.181Z,100800.84
2022-10-16T05:06:31.810Z,100801.14
2022-10-16T05:08:59.445Z,100800.20
2022-10-16T05:11:27.326Z,100792.63
2022-10-16T05:13:55.941Z,100797.36
2022-10-16T05:16:23.804Z,100812.96
2022-10-16T05:18:53.230Z,100815.77
2022-10-16T05:21:23.908Z,100820.27
2022-10-16T05:23:51.580Z,100826.18
2022-10-16T05:26:19.185Z,100826.41
2022-10-16T05:28:46.873Z,100825.06
2022-10-16T05:31:14.551Z,100824.46
2022-10-16T05:33:42.342Z,100817.20
2022-10-16T05:36:10.260Z,100810.38
2022-10-16T05:38:38.341Z,100811.77
2022-10-16T05:41:06.189Z,100819.14
2022-10-16T05:43:33.845Z,100827.38
2022-10-16T05:46:05.909Z,100829.08
2022-10-16T05:48:34.150Z,100824.86
2022-10-16T05:51:03.230Z,100828.03
2022-10-16T05:53:33.044Z,100830.45
2022-10-16T05:56:01.075Z,100831.19
2022-10-16T05:58:33.276Z,100828.71
2022-10-16T06:01:02.581Z,100834.77
2022-10-16T06:03:30.292Z,100839.88
2022-10-16T06:05:57.997Z,100843.60
2022-10-16T06:08:25.792Z,100846.16
2022-10-16T06:11:04.155Z,100847.15
2022-10-16T06:13:32.124Z,100852.83
2022-10-16T06:16:00.663Z,100855.92
2022-10-16T06:18:28.986Z,100858.84
2022-10-16T06:20:56.976Z,100855.77
2022-10-16T06:23:25.225Z,100848.92
2022-10-16T06:25:52.936Z,100849.87
2022-10-16T06:28:20.564Z,100852.17
2022-10-16T06:30:48.226Z,100859.60
2022-10-16T06:33:15.918Z,100855.77
2022-10-16T06:35:43.529Z,100849.95
2022-10-16T06:38:11.145Z,100857.95
2022-10-16T06:40:38.843Z,100871.02
2022-10-16T06:43:06.535Z,100877.79
2022-10-16T06:45:34.217Z,100883.31
2022-10-16T06:48:02.231Z,100887.83
2022-10-16T06:50:29.909Z,100892.69
2022-10-16T06:52:57.594Z,100899.20
2022-10-16T06:55:25.518Z,100899.34
2022-10-16T06:57:53.238Z,100904.08
2022-10-16T07:00:20.890Z,100909.56
2022-10-16T07:02:48.566Z,100915.14
2022-10-16T07:05:16.331Z,100919.61
2022-10-16T07:07:44.242Z,100927.95
2022-10-16T07:10:11.878Z,100935.66
2022-10-16T07:12:39.522Z,100935.16
2022-10-16T07:15:07.392Z,100932.06
2022-10-16T07:17:35.305Z,100923.38
2022-10-16T07:20:03.360Z,100922.60
2022-10-16T07:22:31.012Z,100921.84
2022-10-16T07:24:59.839Z,100915.41
2022-10-16T07:27:27.580Z,100918.95
2022-10-16T07:29:55.257Z,100919.57
2022-10-16T07:32:22.900Z,100919.92
2022-10-16T07:34:50.553Z,100925.62
2022-10-16T07:37:18.313Z,100928.20
2022-10-16T07:39:45.980Z,100932.00
2022-10-16T07:42:13.652Z,100932.34
2022-10-16T07:44:41.942Z,100923.52
2022-10-16T07:47:10.198Z,100925.50
2022-10-16T07:49:37.860Z,100924.20
2022-10-16T07:52:05.624Z,100916.32
2022-10-16T07:54:33.656Z,100921.13
2022-10-16T07:57:01.310Z,100924.88
2022-10-16T07:59:29.038Z,100924.29
2022-10-16T08:01:56.694Z,100929.33
2022-10-16T08:04:25.304Z,100937.87
2022-10-16T08:06:53.018Z,100942.13
2022-10-16T08:09:20.944Z,100943.58
2022-10-16T08:11:48.594Z,100948.36
2022-10-16T08:14:16.410Z,100953.50
2022-10-16T08:16:44.026Z,100952.48
2022-10-16T08:19:11.726Z,100949.08
2022-10-16T08:21:39.401Z,100948.20
2022-10-16T08:24:07.060Z,100954.12
2022-10-16T08:26:34.691Z,100953.42
2022-10-16T08:29:02.601Z,100947.77
2022-10-16T08:31:30.444Z,100946.73
2022-10-16T08:33:58.324Z,100946.54
2022-10-16T08:36:26.021Z,100949.80
2022-10-16T08:38:55.517Z,100949.48
2022-10-16T08:41:55.841Z,100953.98
2022-10-16T08:44:33.378Z,100953.54
2022-10-16T08:47:13.118Z,100957.35
2022-10-16T08:52:15.210Z,100961.33
2022-10-16T08:54:46.089Z,100967.34
2022-10-16T08:57:24.548Z,100971.27
2022-10-16T08:59:52.895Z,100967.68
2022-10-16T09:02:28.259Z,100966.42
2022-10-16T09:05:05.253Z,100967.42
2022-10-16T09:07:45.109Z,100976.77
2022-10-16T09:10:31.845Z,100980.21
2022-10-16T09:13:14.912Z,100983.44
2022-10-16T09:15:42.514Z,100982.40
2022-10-16T09:18:32.549Z,100985.04
2022-10-16T09:21:00.826Z,100983.13
2022-10-16T09:23:29.873Z,100974.26
2022-10-16T09:25:59.508Z,100975.91
2022-10-16T09:28:27.465Z,100975.77
2022-10-16T09:30:55.714Z,100984.50
2022-10-16T09:33:27.020Z,100986.38
2022-10-16T09:35:55.752Z,100988.36
2022-10-16T09:38:30.880Z,100997.45
2022-10-16T09:41:03.042Z,101004.00
2022-10-16T09:43:32.047Z,101004.59
2022-10-16T09:46:01.569Z,101002.13
2022-10-16T09:48:33.089Z,100996.08
2022-10-16T09:51:02.574Z,100992.42
2022-10-16T09:53:40.598Z,100989.39
2022-10-16T09:56:11.714Z,100999.60
2022-10-16T09:58:50.581Z,101008.10
2022-10-16T10:01:18.341Z,101008.44
2022-10-16T10:03:47.523Z,101007.72
2022-10-16T10:06:18.300Z,101009.92
2022-10-16T10:08:55.939Z,101006.86
2022-10-16T10:11:39.113Z,101009.63
2022-10-16T10:14:09.854Z,101012.80
2022-10-16T10:16:37.471Z,101013.54
2022-10-16T10:19:05.121Z,101011.41
2022-10-16T10:21:33.910Z,101006.13
2022-10-16T10:24:01.597Z,101007.23
2022-10-16T10:26:31.005Z,101012.83
2022-10-16T10:29:04.845Z,101016.38
2022-10-16T10:31:52.817Z,101015.48
2022-10-16T10:34:28.130Z,101012.76
2022-10-16T10:37:05.545Z,101008.31
2022-10-16T10:39:33.359Z,101000.73
2022-10-16T10:42:07.103Z,100999.48
2022-10-16T10:44:44.050Z,100999.64
2022-10-16T10:47:20.495Z,100997.60
2022-10-16T10:49:58.889Z,100995.67
2022-10-16T10:52:29.666Z,100996.42
2022-10-16T10:55:16.546Z,101002.47
2022-10-16T10:58:02.082Z,101009.78
2022-10-16T11:00:43.621Z,101011.02
2022-10-16T11:03:23.552Z,101010.80
2022-10-16T11:05:52.552Z,101017.30
2022-10-16T11:08:23.001Z,101017.77
2022-10-16T11:10:56.201Z,101010.84
2022-10-16T11:13:37.213Z,100997.96
2022-10-16T11:16:14.337Z,100989.42
2022-10-16T11:18:44.058Z,100998.92
2022-10-16T11:21:14.205Z,101004.60
2022-10-16T11:23:57.697Z,101005.66
2022-10-16T11:26:31.747Z,101004.82
2022-10-16T11:29:01.412Z,101002.90
2022-10-16T11:31:33.682Z,101001.80
2022-10-16T11:34:06.990Z,101004.41
2022-10-16T11:36:40.447Z,101010.22
2022-10-16T11:39:08.038Z,101009.80
2022-10-16T11:41:35.690Z,101011.30
2022-10-16T11:44:06.600Z,101008.88
2022-10-16T11:46:47.878Z,101007.77
2022-10-16T11:49:26.601Z,101007.25
2022-10-16T11:52:18.145Z,101002.23
2022-10-16T11:54:52.665Z,100997.27
2022-10-16T11:57:33.034Z,101002.83
2022-10-16T12:00:06.667Z,101017.59
2022-10-16T12:02:40.130Z,101017.95
2022-10-16T12:05:16.323Z,101011.70
2022-10-16T12:08:06.974Z,101010.61
2022-10-16T12:13:26.019Z,101018.60
2022-10-16T12:16:04.729Z,101020.27
2022-10-16T12:18:32.363Z,101022.31
2022-10-16T12:21:06.040Z,101021.79
2022-10-16T12:23:37.772Z,101022.22
2022-10-16T12:26:06.353Z,101026.70
2022-10-16T12:28:34.632Z,101029.64
2022-10-16T12:31:04.332Z,101025.98
2022-10-16T12:33:36.418Z,101027.86
2022-10-16T12:36:27.156Z,101028.96
2022-10-16T12:38:54.920Z,101035.54
2022-10-16T12:41:28.907Z,101029.16
2022-10-16T12:43:56.926Z,101030.21
2022-10-16T12:46:45.014Z,101028.28
2022-10-16T12:49:16.666Z,101027.55
2022-10-16T12:51:44.510Z,101025.23
2022-10-16T12:54:16.760Z,101034.34
2022-10-16T12:57:03.085Z,101039.44
2022-10-16T12:59:39.324Z,101052.48
2022-10-16T13:02:24.944Z,101054.54
2022-10-16T13:05:09.903Z,101054.98
2022-10-16T13:08:03.136Z,101056.59
2022-10-16T13:10:41.396Z,101061.50
2022-10-16T13:13:25.012Z,101061.25
2022-10-16T13:15:55.676Z,101052.75
2022-10-16T13:18:27.802Z,101052.27
2022-10-16T13:21:01.605Z,101054.27
2022-10-16T13:23:36.836Z,101056.23
2022-10-16T13:26:13.694Z,101063.46
2022-10-16T13:28:41.749Z,101062.39
2022-10-16T13:31:21.097Z,101063.95
2022-10-16T13:33:51.826Z,101056.74
2022-10-16T13:36:21.389Z,101062.37
2022-10-16T13:38:49.546Z,101070.58
2022-10-16T13:41:19.298Z,101077.03
2022-10-16T13:43:49.977Z,101080.14
2022-10-16T13:46:19.461Z,101081.27
2022-10-16T13:48:59.468Z,101089.31
2022-10-16T13:51:27.654Z,101094.24
2022-10-16T13:53:56.383Z,101093.48
2022-10-16T13:56:26.764Z,101099.02
2022-10-16T13:59:00.966Z,101095.49
2022-10-16T14:01:32.753Z,101104.41
2022-10-16T14:04:06.354Z,101109.91
2022-10-16T14:06:34.375Z,101115.26
2022-10-16T14:09:08.125Z,101118.02
2022-10-16T14:11:39.700Z,101119.32
2022-10-16T14:14:12.013Z,101119.98
2022-10-16T14:16:42.062Z,101122.13
2022-10-16T14:19:21.457Z,101122.41
2022-10-16T14:21:50.220Z,101119.26
2022-10-16T14:24:27.385Z,101119.16
2022-10-16T14:26:57.391Z,101120.43
2022-10-16T14:29:26.532Z,101121.76
2022-10-16T14:31:57.629Z,101125.73
2022-10-16T14:34:36.256Z,101129.56
2022-10-16T14:37:15.955Z,101132.51
2022-10-16T14:39:43.884Z,101134.20
2022-10-16T14:42:17.771Z,101138.36
2022-10-16T14:44:45.958Z,101137.80
2022-10-16T14:47:18.356Z,101140.02
2022-10-16T14:49:46.024Z,101142.69
2022-10-16T14:52:14.127Z,101146.70
2022-10-16T14:54:41.760Z,101149.57
2022-10-16T14:57:19.974Z,101153.42
2022-10-16T14:59:48.331Z,101158.42
2022-10-16T15:02:21.998Z,101158.91
2022-10-16T15:04:50.132Z,101159.94
2022-10-16T15:07:17.858Z,101163.69
2022-10-16T15:09:49.017Z,101163.28
2022-10-16T15:12:18.289Z,101161.56
2022-10-16T15:14:45.985Z,101159.95
2022-10-16T15:17:14.663Z,101161.11
2022-10-16T15:19:44.205Z,101158.34
2022-10-16T15:22:13.337Z,101162.62
2022-10-16T15:24:41.032Z,101165.04
2022-10-16T15:27:08.743Z,101165.07
2022-10-16T15:29:36.349Z,101169.52
2022-10-16T15:32:04.345Z,101168.39
2022-10-16T15:34:32.122Z,101169.30
2022-10-16T15:37:03.299Z,101166.71
2022-10-16T15:39:30.916Z,101166.21
2022-10-16T15:41:58.589Z,101166.93
2022-10-16T15:44:30.888Z,101167.45
2022-10-16T15:46:58.981Z,101176.48
2022-10-16T15:49:26.644Z,101178.86
2022-10-16T15:51:55.941Z,101177.38
2022-10-16T15:54:23.929Z,101178.83
2022-10-16T15:56:51.603Z,101181.21
2022-10-16T15:59:21.872Z,101188.95
2022-10-16T16:01:49.647Z,101190.13
2022-10-16T16:04:42.251Z,101193.83
2022-10-16T16:07:08.360Z,101197.90
2022-10-16T16:09:36.413Z,101199.99
2022-10-16T16:12:04.705Z,101202.27
2022-10-16T16:14:32.505Z,101202.02
2022-10-16T16:17:00.272Z,101205.89
2022-10-16T16:19:27.989Z,101210.38
2022-10-16T16:21:55.763Z,101214.30
2022-10-16T16:24:23.533Z,101220.73
2022-10-16T16:26:51.167Z,101222.17
2022-10-16T16:29:18.813Z,101232.26
2022-10-16T16:31:48.156Z,101238.17
2022-10-16T16:34:16.033Z,101241.05
2022-10-16T16:36:43.690Z,101248.82
2022-10-16T16:39:11.770Z,101254.67
2022-10-16T16:41:39.511Z,101259.97
2022-10-16T16:44:08.680Z,101266.98
2022-10-16T16:46:36.471Z,101265.92
2022-10-16T16:49:04.402Z,101273.98
2022-10-16T16:51:35.779Z,101277.63
2022-10-16T16:54:08.359Z,101280.10
2022-10-16T16:56:36.248Z,101282.66
2022-10-16T16:59:04.922Z,101291.26
2022-10-16T17:01:32.656Z,101298.11
2022-10-16T17:04:00.744Z,101303.05
2022-10-16T17:06:30.639Z,101304.94
2022-10-16T17:08:59.030Z,101309.27
2022-10-16T17:11:27.615Z,101311.61
2022-10-16T17:13:57.109Z,101311.73
2022-10-16T17:16:27.908Z,101316.44
2022-10-16T17:18:55.587Z,101314.23
2022-10-16T17:21:23.492Z,101316.95
2022-10-16T17:23:52.912Z,101322.51
2022-10-16T17:26:20.801Z,101326.95
2022-10-16T17:28:51.610Z,101327.56
2022-10-16T17:31:20.850Z,101332.80
2022-10-16T17:33:48.679Z,101335.61
2022-10-16T17:36:16.353Z,101341.59
2022-10-16T17:38:44.386Z,101346.79
2022-10-16T17:41:16.962Z,101351.55
2022-10-16T17:43:45.507Z,101350.79
2022-10-16T17:46:13.994Z,101350.50
2022-10-16T17:48:43.074Z,101355.89
2022-10-16T17:51:12.015Z,101360.11
2022-10-16T17:53:40.116Z,101367.00
2022-10-16T17:56:11.669Z,101366.33
2022-10-16T17:58:39.716Z,101367.39
2022-10-16T18:01:17.784Z,101367.73
2022-10-16T18:03:49.072Z,101368.29
2022-10-16T18:06:21.871Z,101370.11
2022-10-16T18:08:51.990Z,101372.98
2022-10-16T18:11:20.446Z,101381.31
2022-10-16T18:13:48.169Z,101383.67
2022-10-16T18:16:16.269Z,101390.69
2022-10-16T18:18:48.017Z,101398.33
2022-10-16T18:21:17.555Z,101398.20
2022-10-16T18:23:50.799Z,101403.84
2022-10-16T18:26:20.554Z,101400.50
2022-10-16T18:28:48.348Z,101397.23
2022-10-16T18:31:17.149Z,101402.70
2022-10-16T18:33:48.748Z,101411.11
2022-10-16T18:36:18.181Z,101421.85
2022-10-16T18:38:46.231Z,101422.29
2022-10-16T18:41:14.100Z,101424.30
2022-10-16T18:43:42.123Z,101429.11
2022-10-16T18:46:14.383Z,101435.05
2022-10-16T18:48:42.518Z,101443.15
2022-10-16T18:51:10.529Z,101443.19
2022-10-16T18:53:39.056Z,101445.96
2022-10-16T18:56:06.888Z,101452.89
2022-10-16T18:58:36.007Z,101453.05
2022-10-16T19:01:05.843Z,101455.98
2022-10-16T19:03:34.065Z,101455.69
2022-10-16T19:06:07.045Z,101456.91
2022-10-16T19:08:38.189Z,101458.68
2022-10-16T19:11:07.497Z,101461.05
2022-10-16T19:13:35.312Z,101468.51
2022-10-16T19:16:19.423Z,101464.69
2022-10-16T19:18:49.085Z,101469.29
2022-10-16T19:21:16.908Z,101472.64
2022-10-16T19:23:44.895Z,101473.77
2022-10-16T19:26:14.548Z,101476.02
2022-10-16T19:28:42.792Z,101480.09
2022-10-16T19:31:14.874Z,101485.52
2022-10-16T19:33:43.105Z,101479.78
2022-10-16T19:36:12.123Z,101481.02
2022-10-16T19:38:40.776Z,101482.57
2022-10-16T19:41:09.630Z,101485.30
2022-10-16T19:43:37.923Z,101488.86
2022-10-16T19:46:06.768Z,101492.08
2022-10-16T19:48:35.111Z,101491.63
2022-10-16T19:51:03.092Z,101490.48
2022-10-16T19:53:31.727Z,101493.42
2022-10-16T19:55:59.780Z,101495.07
2022-10-16T19:58:27.885Z,101494.63
2022-10-16T20:00:55.550Z,101498.17
2022-10-16T20:03:23.226Z,101500.82
2022-10-16T20:05:55.095Z,101501.57
2022-10-16T20:08:23.108Z,101505.83
2022-10-16T20:10:51.838Z,101508.31
2022-10-16T20:13:20.215Z,101510.81
2022-10-16T20:15:48.552Z,101513.67
2022-10-16T20:18:16.878Z,101515.29
2022-10-16T20:20:47.321Z,101521.33
2022-10-16T20:23:17.606Z,101529.46
2022-10-16T20:25:45.657Z,101531.86
2022-10-16T20:28:14.715Z,101534.63
2022-10-16T20:30:44.076Z,101542.91
2022-10-16T20:33:12.647Z,101547.98
2022-10-16T20:35:43.095Z,101552.13
2022-10-16T20:38:11.843Z,101553.90
2022-10-16T20:40:40.394Z,101558.06
2022-10-16T20:43:08.271Z,101564.20
2022-10-16T20:45:35.974Z,101562.08
2022-10-16T20:48:04.087Z,101562.02
2022-10-16T20:50:32.366Z,101561.20
2022-10-16T20:53:00.155Z,101563.92
2022-10-16T20:55:28.163Z,101567.38
2022-10-16T20:57:56.205Z,101568.07
2022-10-16T21:00:23.886Z,101571.85
2022-10-16T21:02:52.347Z,101578.20
2022-10-16T21:05:20.176Z,101584.34
2022-10-16T21:07:47.894Z,101587.48
2022-10-16T21:10:15.690Z,101587.25
2022-10-16T21:12:43.483Z,101589.05
2022-10-16T21:15:15.378Z,101583.38
2022-10-16T21:17:43.624Z,101573.55
2022-10-16T21:20:11.390Z,101565.21
2022-10-16T21:22:39.030Z,101573.71
2022-10-16T21:25:06.824Z,101581.86
2022-10-16T21:27:38.369Z,101588.09
2022-10-16T21:30:07.358Z,101591.35
2022-10-16T21:32:36.135Z,101591.52
2022-10-16T21:35:04.384Z,101592.20
2022-10-16T21:37:32.161Z,101586.60
2022-10-16T21:39:59.915Z,101584.73
2022-10-16T21:42:28.091Z,101588.09
2022-10-16T21:44:56.098Z,101593.98
2022-10-16T21:47:23.801Z,101598.80
2022-10-16T21:49:51.610Z,101606.52
2022-10-16T21:52:19.699Z,101615.98
2022-10-16T21:54:47.343Z,101613.30
2022-10-16T21:57:15.038Z,101610.02
2022-10-16T21:59:42.710Z,101608.02
2022-10-16T22:02:10.383Z,101614.05
2022-10-16T22:04:38.109Z,101614.84
2022-10-16T22:07:05.792Z,101616.89
2022-10-16T22:09:33.522Z,101616.85
2022-10-16T22:12:01.293Z,101615.62
2022-10-16T22:14:29.083Z,101625.10
2022-10-16T22:16:56.759Z,101633.23
2022-10-16T22:19:24.704Z,101631.25
2022-10-16T22:21:57.330Z,101632.98
2022-10-16T22:24:25.403Z,101629.34
2022-10-16T22:26:53.212Z,101634.60
2022-10-16T22:29:21.074Z,101632.89
2022-10-16T22:31:52.377Z,101636.70
2022-10-16T22:34:20.215Z,101641.38
2022-10-16T22:36:48.851Z,101644.55
2022-10-16T22:39:17.147Z,101644.72
2022-10-16T22:41:44.791Z,101642.45
2022-10-16T22:44:13.273Z,101645.55
2022-10-16T22:46:41.005Z,101646.81
2022-10-16T22:49:08.944Z,101657.03
2022-10-16T22:51:36.980Z,101658.80
2022-10-16T22:54:04.919Z,101656.25
2022-10-16T22:56:32.652Z,101655.57
2022-10-16T22:59:00.343Z,101657.35
2022-10-16T23:01:29.443Z,101663.22
2022-10-16T23:03:57.492Z,101665.07
2022-10-16T23:06:25.448Z,101656.59
2022-10-16T23:08:53.656Z,101656.83
2022-10-16T23:11:22.038Z,101650.02
2022-10-16T23:13:50.186Z,101651.47
2022-10-16T23:16:19.384Z,101652.25
2022-10-16T23:18:47.710Z,101654.56
2022-10-16T23:21:16.942Z,101657.77
2022-10-16T23:23:45.101Z,101656.28
2022-10-16T23:26:17.399Z,101651.04
2022-10-16T23:28:45.414Z,101650.09
2022-10-16T23:31:13.775Z,101649.01
2022-10-16T23:33:42.008Z,101649.83
2022-10-16T23:36:11.133Z,101653.19
2022-10-16T23:38:39.200Z,101656.41
2022-10-16T23:41:07.385Z,101661.50
2022-10-16T23:43:35.187Z,101662.99
2022-10-16T23:46:03.096Z,101662.84
2022-10-16T23:48:30.737Z,101660.83
2022-10-16T23:50:58.463Z,101658.70
2022-10-16T23:53:26.508Z,101662.27
2022-10-16T23:55:54.325Z,101668.17
2022-10-16T23:58:22.033Z,101666.66
